Terminal Aerodrome Forecast
Issued by NWS

Home | Current Version | Previous Version | Text Only | Print | Product List | Glossary On
Versions: 1 2 3 4 5 6 7 8 9 10 11 12 13 14 15 16 17 18 19
000
FTUS41 KLWX 262100 AAA
TAFMTN
TAF AMD
KMTN 262106Z 2621/2718 01010KT P6SM OVC015
     FM262300 03014G23KT 6SM -SN OVC015
     FM270200 02014G22KT 3SM -SN OVC015
     FM271400 33012G20KT P6SM -SHSN OVC025
     FM271700 32012G20KT P6SM OVC025=

USA.gov is the U.S. government's official web portal to all federal, state and local government web resources and services.